Time;durP1;ratioP1;P1;durP2;ratioP2;P2;SDS_P1;SDS_P2;PMS_P1;PMS_P2;Temp;Humidity;BMP_temperature;BMP_pressure;BME280_temperature;BME280_humidity;BME280_pressure;Samples;Min_cycle;Max_cycle;Signal;HPM_P1;HPM_P2
2022/04/19 00:00:09;;;;;;;4.63;3.40;;;10.50;99.90;;;;;;4992487;28;20465;-75
2022/04/19 00:02:36;;;;;;;8.03;4.87;;;10.40;99.90;;;;;;4989602;28;20459;-75
2022/04/19 00:05:03;;;;;;;4.57;3.87;;;10.30;99.90;;;;;;4981385;28;20464;-76
2022/04/19 00:07:30;;;;;;;4.20;3.80;;;10.10;99.90;;;;;;4988272;28;20461;-76
2022/04/19 00:09:58;;;;;;;6.33;4.50;;;10.10;99.90;;;;;;4988065;28;20444;-76
2022/04/19 00:12:27;;;;;;;9.70;4.77;;;10.10;99.90;;;;;;4984818;28;21351;-74
2022/04/19 00:14:54;;;;;;;4.30;3.40;;;10.10;99.90;;;;;;4991093;28;20452;-74
2022/04/19 00:17:21;;;;;;;5.13;3.17;;;10.20;99.90;;;;;;4993817;28;20860;-75
2022/04/19 00:19:51;;;;;;;6.30;4.40;;;10.00;99.90;;;;;;4988853;28;20731;-75
2022/04/19 00:22:20;;;;;;;6.57;3.87;;;9.60;99.90;;;;;;4982308;28;20436;-75
2022/04/19 00:24:46;;;;;;;4.17;3.10;;;9.40;99.90;;;;;;4982918;28;20466;-75
2022/04/19 00:27:24;;;;;;;5.37;3.37;;;9.40;99.90;;;;;;4990732;28;20949;-75
2022/04/19 00:29:53;;;;;;;3.70;2.97;;;9.50;99.90;;;;;;4987845;28;20544;-75
2022/04/19 00:32:21;;;;;;;3.73;3.30;;;9.80;99.90;;;;;;4988278;28;20571;-76
2022/04/19 00:34:47;;;;;;;5.43;3.77;;;9.90;99.90;;;;;;4989689;28;20588;-75
2022/04/19 00:37:14;;;;;;;5.83;3.60;;;9.90;99.90;;;;;;4993543;28;20439;-76
2022/04/19 00:39:48;;;;;;;7.27;5.00;;;9.90;99.90;;;;;;4992005;28;20435;-76
2022/04/19 00:42:20;;;;;;;9.83;5.83;;;9.80;99.90;;;;;;4994342;28;20446;-75
2022/04/19 00:44:53;;;;;;;6.20;4.30;;;9.80;99.90;;;;;;4998637;28;20431;-75
2022/04/19 00:47:21;;;;;;;12.07;5.60;;;9.70;99.90;;;;;;4986053;28;20432;-74
2022/04/19 00:49:47;;;;;;;4.90;3.20;;;9.70;99.90;;;;;;4986920;28;20471;-75
2022/04/19 00:52:15;;;;;;;5.47;4.50;;;9.70;99.90;;;;;;4988295;28;20444;-75
2022/04/19 00:54:47;;;;;;;7.20;4.23;;;9.60;99.90;;;;;;4991355;28;20519;-74
2022/04/19 00:57:14;;;;;;;13.80;4.83;;;9.60;99.90;;;;;;4986231;28;20771;-75
2022/04/19 00:59:45;;;;;;;6.67;3.97;;;9.60;99.90;;;;;;4994262;28;20803;-73
2022/04/19 01:02:12;;;;;;;6.63;5.33;;;9.70;99.90;;;;;;4996152;28;20478;-75
2022/04/19 01:04:42;;;;;;;5.50;4.57;;;9.70;99.90;;;;;;4985507;28;20562;-74
2022/04/19 01:09:52;;;;;;;6.83;3.73;;;9.50;99.90;;;;;;4997785;28;20928;-75
2022/04/19 01:15:09;;;;;;;5.80;3.67;;;9.50;99.90;;;;;;4985838;28;20588;-74
2022/04/19 01:17:39;;;;;;;12.97;4.60;;;9.40;99.90;;;;;;4992160;28;20457;-75
2022/04/19 01:20:10;;;;;;;4.40;3.23;;;9.50;99.90;;;;;;4978896;28;20448;-74
2022/04/19 01:22:39;;;;;;;7.07;4.37;;;9.50;99.90;;;;;;4986821;28;20568;-75
2022/04/19 01:25:08;;;;;;;5.43;4.67;;;9.50;99.90;;;;;;4991971;28;21409;-75
2022/04/19 01:27:35;;;;;;;5.27;3.30;;;9.40;99.90;;;;;;4994118;28;20573;-75
2022/04/19 01:30:05;;;;;;;6.00;4.57;;;9.40;99.90;;;;;;4991395;28;20660;-75
2022/04/19 01:32:32;;;;;;;6.20;3.37;;;9.30;99.90;;;;;;4996973;28;20904;-75
2022/04/19 01:35:07;;;;;;;5.43;3.93;;;9.30;99.90;;;;;;4988706;28;20453;-74
2022/04/19 01:37:35;;;;;;;4.60;3.87;;;9.30;99.90;;;;;;4982435;28;20452;-75
2022/04/19 01:40:18;;;;;;;9.23;5.33;;;9.30;99.90;;;;;;4986069;28;20961;-73
2022/04/19 01:42:47;;;;;;;5.60;3.60;;;9.30;99.90;;;;;;4980518;28;20507;-75
2022/04/19 01:45:14;;;;;;;5.63;4.37;;;9.20;99.90;;;;;;4994801;28;20461;-74
2022/04/19 01:47:41;;;;;;;5.87;4.37;;;9.20;99.90;;;;;;4980494;28;20993;-74
2022/04/19 01:50:13;;;;;;;8.03;6.50;;;9.00;99.90;;;;;;4987376;28;20467;-75
2022/04/19 01:52:43;;;;;;;4.57;3.50;;;8.90;99.90;;;;;;4988580;28;20513;-74
2022/04/19 01:55:15;;;;;;;5.83;4.67;;;8.90;99.90;;;;;;4990422;28;20461;-75
2022/04/19 01:57:43;;;;;;;5.13;3.87;;;8.90;99.90;;;;;;4982024;28;20497;-76
2022/04/19 02:00:13;;;;;;;7.37;4.03;;;8.80;99.90;;;;;;4985701;28;21412;-76
2022/04/19 02:02:41;;;;;;;7.67;5.20;;;8.70;99.90;;;;;;4981238;28;20481;-74
2022/04/19 02:05:08;;;;;;;5.37;4.43;;;8.60;99.90;;;;;;4986323;28;20606;-73
2022/04/19 02:07:39;;;;;;;7.53;4.73;;;8.50;99.90;;;;;;4994188;28;20469;-75
2022/04/19 02:10:12;;;;;;;7.27;4.90;;;8.50;99.90;;;;;;4991750;28;20819;-75
2022/04/19 02:12:43;;;;;;;6.60;4.73;;;8.50;99.90;;;;;;4990501;28;20459;-75
2022/04/19 02:15:14;;;;;;;4.93;4.30;;;8.50;99.90;;;;;;4995422;28;20441;-75
2022/04/19 02:17:45;;;;;;;6.63;4.30;;;8.50;99.90;;;;;;4986051;28;20829;-75
2022/04/19 02:20:14;;;;;;;5.20;3.60;;;8.50;99.90;;;;;;4993962;28;20520;-74
2022/04/19 02:22:47;;;;;;;5.57;4.77;;;8.40;99.90;;;;;;4985987;28;20455;-75
2022/04/19 02:25:17;;;;;;;12.77;3.90;;;8.30;99.90;;;;;;4984734;28;20515;-74
2022/04/19 02:27:45;;;;;;;6.20;3.50;;;8.20;99.90;;;;;;4987632;28;20929;-75
2022/04/19 02:30:15;;;;;;;4.53;3.70;;;8.30;99.90;;;;;;4992240;28;20749;-74
2022/04/19 02:32:42;;;;;;;5.80;3.90;;;8.30;99.90;;;;;;4990098;28;20448;-75
2022/04/19 02:35:09;;;;;;;7.00;4.37;;;8.30;99.90;;;;;;4985857;28;20469;-74
2022/04/19 02:37:36;;;;;;;7.73;4.20;;;8.00;99.90;;;;;;4982659;28;20483;-75
2022/04/19 02:40:10;;;;;;;10.03;4.83;;;7.90;99.90;;;;;;4984540;28;20892;-75
2022/04/19 02:42:44;;;;;;;6.73;5.30;;;7.50;99.90;;;;;;4987763;28;20619;-75
2022/04/19 02:45:12;;;;;;;7.60;4.90;;;7.40;99.90;;;;;;5015737;22;20499;-72
2022/04/19 02:47:39;;;;;;;7.90;4.60;;;7.40;99.90;;;;;;5017918;28;20474;-73
2022/04/19 02:50:12;;;;;;;9.30;5.70;;;7.50;99.90;;;;;;5014488;28;21815;-73
2022/04/19 02:52:39;;;;;;;14.60;5.30;;;7.70;99.90;;;;;;5015371;28;20495;-73
2022/04/19 02:55:06;;;;;;;8.33;4.73;;;7.90;99.90;;;;;;5013169;28;20483;-73
2022/04/19 02:57:33;;;;;;;8.83;4.70;;;8.00;99.90;;;;;;5015548;28;20584;-71
2022/04/19 03:00:01;;;;;;;10.80;6.17;;;7.70;99.90;;;;;;5011461;28;20433;-72
2022/04/19 03:02:28;;;;;;;7.23;4.40;;;7.40;99.90;;;;;;5010828;28;20457;-72
2022/04/19 03:04:54;;;;;;;8.73;6.73;;;7.00;99.90;;;;;;5017250;28;20569;-71
2022/04/19 03:07:21;;;;;;;8.43;5.10;;;7.00;99.90;;;;;;5030685;28;20483;-72
2022/04/19 03:09:48;;;;;;;5.73;4.80;;;7.10;99.90;;;;;;5024121;28;20851;-72
2022/04/19 03:12:15;;;;;;;5.50;4.67;;;7.20;99.90;;;;;;5039715;28;20523;-72
2022/04/19 03:14:42;;;;;;;11.10;5.27;;;7.20;99.90;;;;;;5039485;28;20478;-72
2022/04/19 03:17:10;;;;;;;7.90;6.07;;;7.00;99.90;;;;;;5045514;28;20453;-72
2022/04/19 03:19:37;;;;;;;9.60;6.07;;;7.10;99.90;;;;;;5041588;28;20429;-72
2022/04/19 03:22:04;;;;;;;10.53;6.17;;;7.10;99.90;;;;;;5027096;28;20459;-72
2022/04/19 03:29:59;;;;;;;8.53;5.70;;;7.40;99.90;;;;;;5030377;28;20441;-72
2022/04/19 03:32:27;;;;;;;8.60;5.60;;;7.40;99.90;;;;;;5031529;28;20456;-71
2022/04/19 03:34:54;;;;;;;7.43;5.60;;;7.30;99.90;;;;;;5024846;28;20967;-72
2022/04/19 03:37:22;;;;;;;8.00;5.10;;;7.30;99.90;;;;;;5011485;28;20479;-71
2022/04/19 03:39:48;;;;;;;12.53;5.67;;;7.20;99.90;;;;;;5013535;28;20923;-72
2022/04/19 03:42:16;;;;;;;6.47;5.87;;;7.20;99.90;;;;;;5019666;28;20451;-72
2022/04/19 03:44:42;;;;;;;14.33;6.00;;;7.20;99.90;;;;;;5030733;28;20466;-73
2022/04/19 03:47:09;;;;;;;7.97;5.40;;;7.20;99.90;;;;;;5019263;28;21033;-72
2022/04/19 03:49:38;;;;;;;9.67;4.90;;;7.30;99.90;;;;;;5021770;28;20516;-71
2022/04/19 03:52:05;;;;;;;7.20;4.87;;;7.30;99.90;;;;;;5027277;28;20446;-72
2022/04/19 03:54:34;;;;;;;11.33;5.07;;;7.20;99.90;;;;;;5026625;28;20554;-72
2022/04/19 03:57:01;;;;;;;10.80;5.70;;;7.20;99.90;;;;;;5026241;28;20491;-72
2022/04/19 03:59:28;;;;;;;12.43;5.13;;;7.20;99.90;;;;;;5020947;28;20903;-72
2022/04/19 04:01:54;;;;;;;5.93;4.30;;;7.20;99.90;;;;;;5021218;28;20507;-69
2022/04/19 04:04:22;;;;;;;9.23;5.10;;;7.10;99.90;;;;;;5030567;28;20490;-69
2022/04/19 04:06:50;;;;;;;11.57;6.00;;;7.00;99.90;;;;;;5018261;28;20444;-69
2022/04/19 04:09:16;;;;;;;9.80;5.83;;;7.00;99.90;;;;;;5023372;28;20475;-72
2022/04/19 04:11:43;;;;;;;25.37;5.70;;;7.10;99.90;;;;;;5023160;28;21035;-72
2022/04/19 04:14:09;;;;;;;10.80;5.97;;;7.20;99.90;;;;;;5020802;28;20606;-72
2022/04/19 04:16:37;;;;;;;10.63;5.80;;;7.10;99.90;;;;;;5022172;28;21492;-72
2022/04/19 04:19:04;;;;;;;7.83;5.20;;;7.10;99.90;;;;;;5032283;28;20913;-72
2022/04/19 04:21:30;;;;;;;7.37;5.33;;;7.10;99.90;;;;;;5031082;28;20455;-72
2022/04/19 04:23:58;;;;;;;10.00;6.67;;;7.00;99.90;;;;;;5029498;28;20908;-72
2022/04/19 04:26:25;;;;;;;6.90;5.37;;;7.00;99.90;;;;;;5031757;28;20430;-72
2022/04/19 04:28:51;;;;;;;16.00;6.30;;;6.90;99.90;;;;;;5031179;28;20554;-72
2022/04/19 04:31:18;;;;;;;8.00;7.07;;;6.60;99.90;;;;;;5032649;28;20964;-72
2022/04/19 04:33:45;;;;;;;7.87;5.37;;;6.70;99.90;;;;;;5036818;28;20478;-72
2022/04/19 04:36:12;;;;;;;10.40;5.80;;;6.50;99.90;;;;;;5025096;28;20505;-72
2022/04/19 04:38:38;;;;;;;8.60;6.00;;;6.40;99.90;;;;;;5018157;28;20466;-72
2022/04/19 04:41:06;;;;;;;7.70;5.43;;;6.70;99.90;;;;;;5020464;28;20483;-72
2022/04/19 04:43:33;;;;;;;6.83;5.07;;;6.80;99.90;;;;;;5023296;28;20476;-72
2022/04/19 04:51:28;;;;;;;10.87;6.53;;;6.70;99.90;;;;;;5036547;28;20474;-71
2022/04/19 04:53:55;;;;;;;11.33;6.50;;;6.80;99.90;;;;;;5038421;28;20873;-72
2022/04/19 04:56:24;;;;;;;10.50;5.10;;;6.90;99.90;;;;;;5033694;28;21094;-71
2022/04/19 04:58:50;;;;;;;11.83;6.27;;;6.90;99.90;;;;;;5037794;28;20466;-72
2022/04/19 05:01:17;;;;;;;11.57;6.80;;;7.00;99.90;;;;;;5038514;28;20448;-72
2022/04/19 05:03:44;;;;;;;15.27;6.13;;;7.00;99.90;;;;;;5024282;28;20455;-71
2022/04/19 05:06:10;;;;;;;10.67;5.67;;;7.00;99.90;;;;;;5034897;28;20439;-71
2022/04/19 05:08:37;;;;;;;19.47;7.77;;;7.00;99.90;;;;;;5030683;28;20830;-72
2022/04/19 05:11:03;;;;;;;9.20;5.37;;;7.10;99.90;;;;;;5032429;28;20442;-72
2022/04/19 05:13:31;;;;;;;22.53;7.67;;;7.10;99.90;;;;;;5035121;28;20530;-72
2022/04/19 05:15:59;;;;;;;7.33;4.83;;;7.30;99.90;;;;;;5035299;28;20441;-72
2022/04/19 05:18:25;;;;;;;12.13;6.97;;;7.30;99.90;;;;;;5036735;28;20452;-71
2022/04/19 05:20:52;;;;;;;10.90;5.03;;;7.40;99.90;;;;;;5035113;28;20894;-72
2022/04/19 05:23:19;;;;;;;10.50;6.30;;;7.10;99.90;;;;;;5036968;28;20451;-73
2022/04/19 05:25:46;;;;;;;12.13;6.27;;;7.60;99.90;;;;;;5032719;28;20537;-72
2022/04/19 05:28:12;;;;;;;16.27;6.47;;;8.20;99.90;;;;;;5032750;28;21010;-72
2022/04/19 05:30:40;;;;;;;19.33;7.50;;;8.50;99.90;;;;;;5034632;28;20463;-72
2022/04/19 05:33:07;;;;;;;9.47;7.53;;;8.80;99.90;;;;;;5034339;28;20938;-72
2022/04/19 05:35:34;;;;;;;11.83;6.47;;;9.10;99.90;;;;;;5038771;28;20456;-72
2022/04/19 05:38:01;;;;;;;12.00;7.70;;;9.30;99.90;;;;;;5044467;28;20987;-73
2022/04/19 05:40:28;;;;;;;15.47;6.70;;;9.30;99.90;;;;;;5032641;28;20454;-73
2022/04/19 05:42:54;;;;;;;24.33;8.23;;;9.50;99.90;;;;;;5036554;28;20493;-73
2022/04/19 05:45:21;;;;;;;19.03;7.50;;;9.90;99.90;;;;;;5034449;28;20487;-72
2022/04/19 05:47:49;;;;;;;15.40;6.80;;;10.50;99.90;;;;;;5038441;28;20434;-72
2022/04/19 05:50:16;;;;;;;10.40;6.00;;;11.10;99.90;;;;;;5033185;28;20418;-72
2022/04/19 05:52:42;;;;;;;15.57;7.90;;;11.50;99.90;;;;;;5033833;28;20891;-73
2022/04/19 05:55:09;;;;;;;22.00;7.20;;;12.00;99.90;;;;;;5031768;28;20459;-73
2022/04/19 05:57:36;;;;;;;23.90;10.80;;;12.50;99.90;;;;;;5036414;28;21000;-73
2022/04/19 06:00:03;;;;;;;19.17;9.10;;;12.90;99.90;;;;;;5035450;28;20498;-72
2022/04/19 06:05:15;;;;;;;14.03;7.23;;;13.70;99.90;;;;;;5030858;28;21269;-73
2022/04/19 06:07:46;;;;;;;9.37;6.90;;;13.90;99.90;;;;;;5034695;28;20512;-72
2022/04/19 06:10:14;;;;;;;14.07;6.83;;;14.20;99.90;;;;;;5037497;28;20516;-72
2022/04/19 06:12:41;;;;;;;9.83;7.53;;;14.70;99.90;;;;;;5036046;28;20539;-72
2022/04/19 06:15:09;;;;;;;11.67;7.10;;;14.90;99.90;;;;;;5035302;28;20996;-72
2022/04/19 06:17:37;;;;;;;9.70;5.30;;;15.20;99.90;;;;;;5035166;28;20866;-72
2022/04/19 06:20:06;;;;;;;13.53;7.00;;;15.40;99.90;;;;;;5034464;28;20529;-72
2022/04/19 06:22:34;;;;;;;7.17;6.23;;;15.40;99.40;;;;;;5033530;28;20454;-72
2022/04/19 06:25:02;;;;;;;12.83;6.33;;;15.10;98.20;;;;;;5032592;28;20454;-72
2022/04/19 06:27:29;;;;;;;11.57;7.20;;;14.40;99.00;;;;;;5035047;28;20459;-72
2022/04/19 06:29:57;;;;;;;14.73;7.87;;;14.40;99.30;;;;;;5035499;28;20618;-72
2022/04/19 06:32:24;;;;;;;9.17;5.67;;;14.20;99.20;;;;;;5035461;28;20437;-73
2022/04/19 06:34:50;;;;;;;15.33;7.30;;;14.20;99.20;;;;;;5037296;28;20908;-72
2022/04/19 06:37:17;;;;;;;10.47;7.23;;;14.40;99.90;;;;;;5030951;28;20484;-71
2022/04/19 06:39:45;;;;;;;10.93;6.50;;;14.80;99.80;;;;;;5031863;28;20521;-72
2022/04/19 06:42:12;;;;;;;14.13;6.73;;;14.80;99.60;;;;;;5036942;28;20469;-72
2022/04/19 06:44:38;;;;;;;8.03;5.10;;;15.20;99.20;;;;;;5035462;28;20495;-71
2022/04/19 06:47:07;;;;;;;10.70;5.63;;;14.90;98.20;;;;;;5029061;28;20527;-72
2022/04/19 06:49:34;;;;;;;12.73;7.27;;;15.10;97.50;;;;;;5033211;28;20464;-70
2022/04/19 06:52:02;;;;;;;9.10;5.60;;;15.30;98.00;;;;;;5036693;28;20467;-71
2022/04/19 06:54:30;;;;;;;10.70;6.80;;;15.60;97.20;;;;;;5039319;28;20484;-71
2022/04/19 06:56:58;;;;;;;8.50;5.30;;;16.40;97.20;;;;;;5036270;28;20505;-71
2022/04/19 06:59:25;;;;;;;10.40;5.37;;;16.20;95.10;;;;;;5033398;28;20496;-70
2022/04/19 07:01:52;;;;;;;11.90;6.60;;;15.40;95.10;;;;;;5029036;28;20547;-70
2022/04/19 07:04:19;;;;;;;15.03;6.93;;;15.20;96.30;;;;;;5039357;28;20513;-71
2022/04/19 07:06:45;;;;;;;7.07;5.33;;;15.50;96.10;;;;;;5036756;28;20457;-70
2022/04/19 07:09:12;;;;;;;12.00;5.83;;;15.20;96.10;;;;;;5037182;28;20454;-70
2022/04/19 07:11:39;;;;;;;7.97;5.10;;;15.70;96.40;;;;;;5034901;28;20461;-70
2022/04/19 07:14:07;;;;;;;9.40;5.13;;;16.00;95.30;;;;;;5037982;28;20902;-70
2022/04/19 07:16:34;;;;;;;10.63;5.47;;;15.80;94.80;;;;;;5033844;28;20957;-70
2022/04/19 07:19:00;;;;;;;10.33;5.90;;;15.90;94.40;;;;;;5034417;28;20488;-71
2022/04/19 07:26:56;;;;;;;8.20;5.40;;;16.30;93.50;;;;;;5039218;28;20480;-70
2022/04/19 07:29:24;;;;;;;9.70;6.27;;;16.60;93.60;;;;;;5033718;28;20679;-71
2022/04/19 07:31:51;;;;;;;11.83;6.23;;;16.70;92.70;;;;;;5032188;28;20536;-68
2022/04/19 07:34:18;;;;;;;15.70;8.17;;;17.00;91.50;;;;;;5032712;28;20511;-70
2022/04/19 07:36:45;;;;;;;10.27;5.50;;;16.90;91.90;;;;;;5036590;28;20452;-70
2022/04/19 07:39:14;;;;;;;5.73;5.20;;;17.30;91.10;;;;;;5029412;28;20459;-70
2022/04/19 07:41:46;;;;;;;7.87;6.50;;;17.50;90.50;;;;;;5033809;28;20460;-70
2022/04/19 07:44:15;;;;;;;8.40;5.90;;;17.90;89.70;;;;;;5037140;28;20938;-71
2022/04/19 07:46:43;;;;;;;9.23;6.10;;;18.50;88.50;;;;;;5037971;28;20462;-70
2022/04/19 07:49:10;;;;;;;9.00;6.63;;;18.60;87.70;;;;;;5032278;28;20945;-69
2022/04/19 07:51:36;;;;;;;7.73;5.63;;;19.70;88.40;;;;;;5041234;28;20505;-70
2022/04/19 07:54:03;;;;;;;8.53;5.63;;;19.90;79.60;;;;;;5040373;28;20499;-70
2022/04/19 07:56:30;;;;;;;9.70;7.17;;;19.80;78.50;;;;;;5039850;28;20952;-69
2022/04/19 07:58:57;;;;;;;8.70;4.43;;;19.70;79.10;;;;;;5038179;28;20538;-70
2022/04/19 08:01:24;;;;;;;9.23;4.70;;;19.30;77.50;;;;;;5036260;28;20468;-68
2022/04/19 08:03:52;;;;;;;7.20;4.60;;;18.70;78.80;;;;;;5030441;28;20478;-68
2022/04/19 08:06:19;;;;;;;6.47;4.47;;;18.50;78.30;;;;;;5033619;28;20480;-69
2022/04/19 08:08:46;;;;;;;7.53;6.10;;;18.50;78.00;;;;;;5037220;28;20453;-70
2022/04/19 08:11:13;;;;;;;7.30;5.10;;;18.50;79.50;;;;;;5032996;28;20467;-71
2022/04/19 08:13:40;;;;;;;12.87;5.73;;;19.10;77.90;;;;;;5042839;28;20542;-70
2022/04/19 08:16:08;;;;;;;5.57;4.67;;;19.40;77.90;;;;;;5033249;28;20474;-71
2022/04/19 08:18:34;;;;;;;9.17;5.70;;;20.10;74.10;;;;;;5037450;28;20562;-69
2022/04/19 08:21:03;;;;;;;5.63;4.80;;;20.00;74.70;;;;;;5041894;28;20456;-71
2022/04/19 08:23:30;;;;;;;6.33;4.50;;;20.50;72.40;;;;;;5037524;28;21231;-69
2022/04/19 08:25:56;;;;;;;13.20;6.27;;;20.30;69.80;;;;;;5042127;28;20460;-71
2022/04/19 08:28:23;;;;;;;9.90;5.70;;;20.20;72.20;;;;;;5040361;28;20530;-71
2022/04/19 08:30:50;;;;;;;14.07;6.70;;;20.90;69.70;;;;;;5039815;28;20465;-70
2022/04/19 08:33:16;;;;;;;9.40;5.00;;;21.20;65.80;;;;;;5038955;28;20519;-71
2022/04/19 08:35:43;;;;;;;9.70;5.80;;;21.30;64.80;;;;;;5037693;28;20472;-71
2022/04/19 08:38:11;;;;;;;10.20;4.43;;;21.20;64.40;;;;;;5041588;28;20563;-71
2022/04/19 08:40:38;;;;;;;7.70;5.83;;;20.90;64.50;;;;;;5034375;28;20511;-70
2022/04/19 08:43:05;;;;;;;9.23;5.63;;;21.00;65.00;;;;;;5038492;28;20465;-69
2022/04/19 08:45:35;;;;;;;8.50;6.17;;;21.40;63.10;;;;;;5060504;22;20497;-75
2022/04/19 08:48:05;;;;;;;8.57;5.77;;;22.10;64.30;;;;;;5036414;28;20512;-74
2022/04/19 08:50:34;;;;;;;9.40;6.20;;;22.60;61.60;;;;;;5032413;28;20448;-75
2022/04/19 08:58:31;;;;;;;5.73;4.57;;;23.30;58.00;;;;;;5038720;28;20480;-73
2022/04/19 09:00:59;;;;;;;5.63;3.80;;;23.00;58.10;;;;;;5037460;28;20534;-74
2022/04/19 09:03:26;;;;;;;7.33;3.20;;;22.50;57.80;;;;;;5036083;28;20465;-74
2022/04/19 09:05:53;;;;;;;7.77;3.63;;;22.20;58.70;;;;;;5033405;28;20481;-73
2022/04/19 09:08:20;;;;;;;6.30;4.57;;;22.20;59.40;;;;;;5041011;28;20554;-74
2022/04/19 09:10:50;;;;;;;6.63;4.70;;;22.40;58.10;;;;;;5031694;28;20540;-74
2022/04/19 09:13:21;;;;;;;8.40;4.93;;;21.90;61.20;;;;;;5038846;28;21074;-74
2022/04/19 09:15:49;;;;;;;9.47;5.70;;;23.20;57.30;;;;;;5038025;28;20485;-75
2022/04/19 09:18:24;;;;;;;10.70;5.53;;;23.50;57.50;;;;;;5041369;28;20487;-74
2022/04/19 09:20:51;;;;;;;6.03;4.33;;;24.80;56.50;;;;;;5031431;28;20825;-75
2022/04/19 09:23:18;;;;;;;11.23;5.67;;;24.70;53.80;;;;;;5039950;28;20466;-75
2022/04/19 09:25:47;;;;;;;6.30;3.37;;;25.10;54.60;;;;;;5044884;28;20472;-75
2022/04/19 09:28:20;;;;;;;4.87;3.27;;;24.80;53.70;;;;;;5036255;28;20461;-72
2022/04/19 09:30:49;;;;;;;5.27;3.70;;;25.10;52.60;;;;;;5040762;28;20500;-73
2022/04/19 09:33:17;;;;;;;4.87;3.63;;;25.60;50.60;;;;;;5038739;28;20457;-73
2022/04/19 09:35:47;;;;;;;6.20;4.07;;;24.60;51.20;;;;;;5036259;28;20557;-74
2022/04/19 09:38:15;;;;;;;3.87;3.10;;;23.70;51.50;;;;;;5038464;28;20493;-74
2022/04/19 09:40:47;;;;;;;6.87;3.60;;;23.40;51.90;;;;;;5023755;28;20461;-74
2022/04/19 09:43:16;;;;;;;3.93;3.03;;;23.40;52.90;;;;;;5034627;28;20532;-74
2022/04/19 09:45:54;;;;;;;6.60;3.73;;;24.30;52.20;;;;;;5041496;28;20483;-75
2022/04/19 09:48:22;;;;;;;3.80;2.30;;;23.60;51.70;;;;;;5035380;28;20445;-75
2022/04/19 09:50:52;;;;;;;5.30;4.23;;;23.20;52.40;;;;;;5034037;28;20453;-75
2022/04/19 09:53:21;;;;;;;5.23;3.23;;;23.50;52.30;;;;;;5040934;28;20511;-75
2022/04/19 09:55:49;;;;;;;10.97;4.63;;;24.60;51.90;;;;;;5044590;28;20496;-75
2022/04/19 09:58:16;;;;;;;4.53;3.47;;;24.60;51.00;;;;;;5038819;28;20498;-75
2022/04/19 10:00:43;;;;;;;6.33;4.80;;;24.10;51.60;;;;;;5036164;28;21012;-75
2022/04/19 10:08:42;;;;;;;6.33;3.77;;;25.50;51.20;;;;;;5031978;28;20453;-74
2022/04/19 10:11:11;;;;;;;6.90;4.80;;;26.20;50.20;;;;;;5036546;28;21310;-76
2022/04/19 10:13:39;;;;;;;4.87;3.37;;;25.90;49.90;;;;;;5035863;28;20474;-76
2022/04/19 10:16:11;;;;;;;2.97;2.40;;;26.00;48.70;;;;;;5033927;28;20604;-76
2022/04/19 10:18:39;;;;;;;6.90;4.00;;;24.70;49.60;;;;;;5042808;28;20919;-75
2022/04/19 10:21:09;;;;;;;4.67;2.90;;;23.90;50.70;;;;;;5038707;28;20469;-76
2022/04/19 10:23:37;;;;;;;4.97;3.20;;;24.90;50.60;;;;;;5038451;28;21827;-75
2022/04/19 10:26:19;;;;;;;7.57;4.10;;;25.00;49.50;;;;;;5037398;28;20486;-74
2022/04/19 10:28:48;;;;;;;6.67;4.30;;;24.50;50.00;;;;;;5043544;28;21112;-77
2022/04/19 10:31:23;;;;;;;4.30;3.70;;;24.50;49.80;;;;;;5042910;28;20937;-77
2022/04/19 10:33:53;;;;;;;7.10;4.10;;;25.20;49.40;;;;;;5038548;28;21776;-76
2022/04/19 10:36:22;;;;;;;4.60;3.67;;;25.30;50.80;;;;;;5037187;28;20895;-76
2022/04/19 10:39:19;;;;;;;8.00;4.30;;;25.90;50.40;;;;;;5034256;28;20770;-76
2022/04/19 10:41:52;;;;;;;4.33;3.60;;;25.40;48.30;;;;;;5029232;28;20467;-76
2022/04/19 10:44:28;;;;;;;5.30;3.50;;;25.50;50.00;;;;;;5042926;28;20462;-75
2022/04/19 10:47:06;;;;;;;4.90;3.47;;;25.10;48.90;;;;;;5043540;28;20453;-75
2022/04/19 10:49:47;;;;;;;5.37;3.80;;;25.10;50.80;;;;;;5042114;28;20508;-76
2022/04/19 10:52:47;;;;;;;6.30;4.20;;;25.80;50.10;;;;;;5039592;28;20970;-74
2022/04/19 10:55:22;;;;;;;5.97;3.70;;;26.90;48.60;;;;;;5037619;28;20501;-74
2022/04/19 10:58:12;;;;;;;5.20;3.70;;;26.60;49.30;;;;;;5042103;28;20491;-74
2022/04/19 11:00:52;;;;;;;5.93;3.53;;;27.00;47.30;;;;;;5045826;28;20462;-74
2022/04/19 11:03:20;;;;;;;6.70;3.60;;;26.80;47.50;;;;;;5035837;28;20463;-75
2022/04/19 11:05:50;;;;;;;4.20;3.57;;;26.60;48.90;;;;;;5031097;28;20489;-75
2022/04/19 11:08:31;;;;;;;5.67;3.50;;;26.90;47.80;;;;;;5036548;28;20456;-75
2022/04/19 11:11:22;;;;;;;5.90;4.37;;;26.50;47.20;;;;;;5032152;28;20951;-75
2022/04/19 11:14:21;;;;;;;7.67;3.73;;;26.70;49.10;;;;;;5042325;28;20471;-76
2022/04/19 11:16:51;;;;;;;6.50;2.97;;;27.40;47.80;;;;;;5043421;28;20541;-76
2022/04/19 11:19:21;;;;;;;4.43;3.20;;;26.90;47.00;;;;;;5041316;28;20548;-76
2022/04/19 11:21:52;;;;;;;4.20;3.70;;;26.90;46.60;;;;;;5046375;28;20468;-76
2022/04/19 11:24:57;;;;;;;6.77;3.47;;;27.00;46.40;;;;;;5045428;28;20460;-76
2022/04/19 11:27:25;;;;;;;5.90;4.70;;;26.70;47.10;;;;;;5043800;28;20804;-74
2022/04/19 11:29:52;;;;;;;6.40;4.10;;;27.90;47.20;;;;;;5048026;28;20461;-75
2022/04/19 11:32:21;;;;;;;7.63;3.27;;;27.70;46.40;;;;;;5040817;28;20519;-75
2022/04/19 11:34:58;;;;;;;10.00;3.00;;;27.10;45.80;;;;;;5041236;28;20481;-75
2022/04/19 11:37:26;;;;;;;4.27;3.70;;;26.50;46.20;;;;;;5040650;28;20493;-76
2022/04/19 11:48:10;;;;;;;5.73;2.30;;;27.10;47.40;;;;;;5047091;28;20508;-76
2022/04/19 11:50:37;;;;;;;3.70;2.80;;;27.50;45.60;;;;;;5048425;28;20585;-77
2022/04/19 11:53:16;;;;;;;10.23;3.93;;;26.60;46.50;;;;;;5045010;28;20473;-76
2022/04/19 11:55:51;;;;;;;4.43;3.40;;;26.20;48.10;;;;;;5044113;28;20576;-77
2022/04/19 11:58:21;;;;;;;4.13;3.03;;;27.50;47.80;;;;;;5039930;28;20456;-76
2022/04/19 12:01:05;;;;;;;4.37;3.20;;;27.90;46.10;;;;;;5035008;28;20489;-75
2022/04/19 12:03:37;;;;;;;5.17;3.67;;;27.20;47.50;;;;;;5036173;28;20568;-76
2022/04/19 12:06:14;;;;;;;6.43;3.57;;;26.60;47.10;;;;;;5037159;28;20490;-76
2022/04/19 12:08:51;;;;;;;4.30;3.47;;;26.60;48.00;;;;;;5041243;28;20511;-76
2022/04/19 12:11:23;;;;;;;6.10;3.40;;;27.10;45.40;;;;;;5036181;28;20529;-75
2022/04/19 12:13:50;;;;;;;4.77;4.00;;;27.80;45.60;;;;;;5032320;28;20566;-75
2022/04/19 12:16:33;;;;;;;6.10;3.10;;;27.60;45.80;;;;;;5040598;28;20845;-77
2022/04/19 12:19:07;;;;;;;5.00;3.23;;;26.90;46.40;;;;;;5040007;28;20481;-76
2022/04/19 12:21:38;;;;;;;3.90;2.27;;;26.80;46.00;;;;;;5037017;28;20587;-74
2022/04/19 12:24:07;;;;;;;3.60;2.90;;;26.50;46.20;;;;;;5042040;28;20485;-75
2022/04/19 12:26:38;;;;;;;4.80;3.47;;;26.60;46.50;;;;;;5037665;28;20573;-76
2022/04/19 12:29:11;;;;;;;4.40;2.90;;;27.20;47.10;;;;;;5039833;28;20472;-75
2022/04/19 12:31:40;;;;;;;6.13;3.50;;;27.70;46.50;;;;;;5035266;28;20463;-76
2022/04/19 12:34:08;;;;;;;3.80;3.27;;;28.00;45.40;;;;;;5039470;28;20481;-75
2022/04/19 12:36:45;;;;;;;4.37;3.90;;;28.10;45.50;;;;;;5039466;28;20456;-75
2022/04/19 12:39:14;;;;;;;4.60;3.60;;;27.80;46.20;;;;;;5033081;28;20499;-75
2022/04/19 12:41:44;;;;;;;6.20;4.30;;;26.80;45.00;;;;;;5035396;28;20477;-75
2022/04/19 12:44:12;;;;;;;4.70;4.17;;;26.90;47.10;;;;;;5044153;28;20484;-74
2022/04/19 12:46:40;;;;;;;8.20;4.07;;;27.20;46.10;;;;;;5038956;28;20781;-77
2022/04/19 12:49:07;;;;;;;5.33;3.90;;;28.10;46.10;;;;;;5036703;28;20540;-74
2022/04/19 12:51:37;;;;;;;4.00;3.60;;;27.70;44.60;;;;;;5035830;28;20510;-74
2022/04/19 12:54:05;;;;;;;6.33;3.27;;;26.60;45.80;;;;;;5036283;28;21176;-75
2022/04/19 12:56:39;;;;;;;5.33;3.10;;;26.40;44.80;;;;;;5035379;28;20830;-76
2022/04/19 12:59:06;;;;;;;4.43;3.20;;;27.30;45.30;;;;;;5025719;28;20490;-76
2022/04/19 13:01:33;;;;;;;4.80;3.97;;;27.30;44.50;;;;;;5031112;28;20487;-76
2022/04/19 13:04:02;;;;;;;3.40;2.60;;;27.50;44.20;;;;;;5034405;28;20453;-76
2022/04/19 13:14:43;;;;;;;3.50;3.00;;;27.20;45.50;;;;;;5029911;28;20479;-75
2022/04/19 13:17:12;;;;;;;4.03;2.93;;;26.60;44.80;;;;;;5035972;28;20870;-76
2022/04/19 13:19:41;;;;;;;4.20;3.17;;;25.90;45.40;;;;;;5044595;28;20487;-75
2022/04/19 13:22:11;;;;;;;5.77;3.20;;;26.40;45.70;;;;;;5037326;28;20838;-74
2022/04/19 13:24:39;;;;;;;3.93;2.67;;;27.20;45.20;;;;;;5044669;28;20515;-75
2022/04/19 13:27:11;;;;;;;6.20;2.97;;;26.40;44.50;;;;;;5042475;28;20476;-76
2022/04/19 13:29:39;;;;;;;3.53;2.60;;;26.80;44.40;;;;;;5042940;28;20462;-75
2022/04/19 13:32:10;;;;;;;4.10;2.60;;;27.40;44.10;;;;;;5033514;28;20895;-76
2022/04/19 13:34:39;;;;;;;2.47;1.73;;;28.00;43.20;;;;;;5035877;28;20566;-76
2022/04/19 13:37:10;;;;;;;4.17;3.23;;;27.00;43.50;;;;;;5031548;28;20475;-75
2022/04/19 13:39:37;;;;;;;2.53;2.30;;;26.10;44.90;;;;;;5029146;28;20468;-76
2022/04/19 13:42:04;;;;;;;2.90;2.07;;;26.60;45.20;;;;;;5029516;28;20468;-75
2022/04/19 13:44:32;;;;;;;3.80;2.50;;;27.10;43.50;;;;;;5043784;28;20494;-75
2022/04/19 13:47:00;;;;;;;3.57;3.13;;;27.00;44.50;;;;;;5040383;28;20484;-75
2022/04/19 13:49:28;;;;;;;3.27;2.97;;;27.00;43.00;;;;;;5041311;28;20469;-76